createdAt,value
2018-12-28T00:01:14.587Z,4.44
2018-12-28T00:03:45.277Z,4.42
2018-12-28T00:06:16.732Z,4.39
2018-12-28T00:08:48.066Z,4.40
2018-12-28T00:11:18.557Z,4.39
2018-12-28T00:13:49.012Z,4.40
2018-12-28T00:16:20.699Z,4.39
2018-12-28T00:18:51.527Z,4.41
2018-12-28T00:21:23.978Z,4.39
2018-12-28T00:23:54.995Z,4.33
2018-12-28T00:26:25.964Z,4.31
2018-12-28T00:28:56.766Z,4.29
2018-12-28T00:31:27.451Z,4.32
2018-12-28T00:33:58.016Z,4.31
2018-12-28T00:36:31.881Z,4.28
2018-12-28T00:39:12.934Z,4.27
2018-12-28T00:41:44.282Z,4.25
2018-12-28T00:44:14.838Z,4.21
2018-12-28T00:46:47.242Z,4.22
2018-12-28T00:49:20.820Z,4.19
2018-12-28T00:51:53.254Z,4.16
2018-12-28T00:54:24.205Z,4.15
2018-12-28T00:56:54.622Z,4.15
2018-12-28T00:59:25.057Z,4.13
2018-12-28T01:01:55.583Z,4.12
2018-12-28T01:04:26.737Z,4.11
2018-12-28T01:06:58.657Z,4.08
2018-12-28T01:09:29.122Z,4.07
2018-12-28T01:12:05.894Z,4.03
2018-12-28T01:14:36.532Z,4.03
2018-12-28T01:17:07.284Z,4.01
2018-12-28T01:19:38.141Z,3.98
2018-12-28T01:22:08.983Z,3.95
2018-12-28T01:24:39.464Z,3.93
2018-12-28T01:27:09.918Z,3.91
2018-12-28T01:29:40.859Z,3.86
2018-12-28T01:32:11.404Z,3.83
2018-12-28T01:34:41.787Z,3.80
2018-12-28T01:37:20.792Z,3.77
2018-12-28T01:39:52.487Z,3.76
2018-12-28T01:42:28.410Z,3.74
2018-12-28T01:44:59.277Z,3.70
2018-12-28T01:47:32.168Z,3.73
2018-12-28T01:50:02.654Z,3.69
2018-12-28T01:52:33.188Z,3.69
2018-12-28T01:55:03.610Z,3.66
2018-12-28T01:57:34.488Z,3.65
2018-12-28T02:00:06.175Z,3.60
2018-12-28T02:02:36.989Z,3.57
2018-12-28T02:05:07.713Z,3.55
2018-12-28T02:07:40.184Z,3.54
2018-12-28T02:10:11.950Z,3.50
2018-12-28T02:12:42.509Z,3.51
2018-12-28T02:15:13.780Z,3.49
2018-12-28T02:17:44.193Z,3.47
2018-12-28T02:20:17.786Z,3.46
2018-12-28T02:22:50.959Z,3.46
2018-12-28T02:25:23.796Z,3.40
2018-12-28T02:27:54.275Z,3.40
2018-12-28T02:30:59.275Z,3.38
2018-12-28T02:33:33.607Z,3.34
2018-12-28T02:36:04.047Z,3.31
2018-12-28T02:38:34.678Z,3.30
2018-12-28T02:41:10.309Z,3.28
2018-12-28T02:43:40.966Z,3.25
2018-12-28T02:46:14.478Z,3.23
2018-12-28T02:48:45.373Z,3.23
2018-12-28T02:51:15.923Z,3.23
2018-12-28T02:53:46.361Z,3.19
2018-12-28T02:56:17.100Z,3.14
2018-12-28T02:58:47.834Z,3.11
2018-12-28T03:01:18.304Z,3.06
2018-12-28T03:03:49.072Z,3.06
2018-12-28T03:06:19.513Z,3.03
2018-12-28T03:08:52.242Z,3.01
2018-12-28T03:11:22.640Z,2.94
2018-12-28T03:13:53.141Z,2.93
2018-12-28T03:16:23.533Z,2.89
2018-12-28T03:18:54.156Z,2.86
2018-12-28T03:21:24.625Z,2.82
2018-12-28T03:23:55.040Z,2.77
2018-12-28T03:26:25.406Z,2.74
2018-12-28T03:28:55.832Z,2.73
2018-12-28T03:31:26.482Z,2.73
2018-12-28T03:33:56.856Z,2.70
2018-12-28T03:36:27.181Z,2.68
2018-12-28T03:39:00.409Z,2.66
2018-12-28T03:41:30.787Z,2.64
2018-12-28T03:44:01.199Z,2.62
2018-12-28T03:46:31.515Z,2.59
2018-12-28T03:49:04.813Z,2.55
2018-12-28T03:51:35.233Z,2.54
2018-12-28T03:54:05.727Z,2.54
2018-12-28T03:56:36.223Z,2.53
2018-12-28T03:59:06.625Z,2.59
2018-12-28T04:01:37.269Z,2.57
2018-12-28T04:04:08.164Z,2.56
2018-12-28T04:06:38.618Z,2.53
2018-12-28T04:09:09.072Z,2.53
2018-12-28T04:11:42.783Z,2.44
2018-12-28T04:14:13.150Z,2.41
2018-12-28T04:16:49.573Z,2.40
2018-12-28T04:19:20.122Z,2.38
2018-12-28T04:21:50.677Z,2.36
2018-12-28T04:24:34.495Z,2.34
2018-12-28T04:27:09.064Z,2.33
2018-12-28T04:29:39.531Z,2.30
2018-12-28T04:32:11.491Z,2.30
2018-12-28T04:34:44.619Z,2.30
2018-12-28T04:37:14.900Z,2.24
2018-12-28T04:39:45.409Z,2.24
2018-12-28T04:42:16.070Z,2.25
2018-12-28T04:44:46.478Z,2.25
2018-12-28T04:47:16.975Z,2.22
2018-12-28T04:49:47.504Z,2.21
2018-12-28T04:52:18.005Z,2.20
2018-12-28T04:54:48.937Z,2.19
2018-12-28T04:57:22.725Z,2.15
2018-12-28T04:59:54.123Z,2.15
2018-12-28T05:02:33.299Z,2.16
2018-12-28T05:05:38.137Z,2.15
2018-12-28T05:08:38.252Z,2.16
2018-12-28T05:11:38.309Z,2.14
2018-12-28T05:14:20.383Z,2.11
2018-12-28T05:17:19.158Z,2.08
2018-12-28T05:20:25.778Z,2.05
2018-12-28T05:23:23.368Z,2.06
2018-12-28T05:26:07.313Z,2.03
2018-12-28T05:29:02.008Z,1.99
2018-12-28T05:31:50.146Z,1.95
2018-12-28T05:34:23.301Z,1.96
2018-12-28T05:36:56.323Z,1.94
2018-12-28T05:39:26.857Z,1.90
2018-12-28T05:41:57.462Z,1.87
2018-12-28T05:44:31.064Z,1.87
2018-12-28T05:47:01.596Z,1.85
2018-12-28T05:49:32.321Z,1.81
2018-12-28T05:52:03.026Z,1.78
2018-12-28T05:54:33.710Z,1.76
2018-12-28T05:57:05.804Z,1.76
2018-12-28T05:59:36.469Z,1.75
2018-12-28T06:02:07.125Z,1.75
2018-12-28T06:04:39.772Z,1.73
2018-12-28T06:07:10.358Z,1.71
2018-12-28T06:09:40.901Z,1.73
2018-12-28T06:12:14.436Z,1.73
2018-12-28T06:14:44.931Z,1.75
2018-12-28T06:17:15.440Z,1.75
2018-12-28T06:19:45.934Z,1.75
2018-12-28T06:22:19.493Z,1.77
2018-12-28T06:24:55.141Z,1.77
2018-12-28T06:27:27.717Z,1.81
2018-12-28T06:29:58.247Z,1.84
2018-12-28T06:32:28.763Z,1.88
2018-12-28T06:35:01.523Z,1.92
2018-12-28T06:37:33.006Z,1.95
2018-12-28T06:40:07.338Z,1.96
2018-12-28T06:42:40.030Z,1.98
2018-12-28T06:45:12.362Z,1.98
2018-12-28T06:47:42.977Z,2.04
2018-12-28T06:50:13.429Z,2.05
2018-12-28T06:53:22.171Z,2.06
2018-12-28T06:56:38.041Z,2.06
2018-12-28T06:59:44.067Z,2.03
2018-12-28T07:03:03.102Z,2.04
2018-12-28T07:06:10.188Z,2.03
2018-12-28T07:09:16.064Z,2.04
2018-12-28T07:12:39.723Z,2.12
2018-12-28T07:15:57.252Z,2.11
2018-12-28T07:19:10.417Z,2.07
2018-12-28T07:22:35.859Z,2.05
2018-12-28T07:25:56.348Z,2.04
2018-12-28T07:29:05.628Z,2.09
2018-12-28T07:32:03.412Z,2.14
2018-12-28T07:35:15.685Z,2.15
2018-12-28T07:38:29.633Z,2.05
2018-12-28T07:41:56.145Z,2.09
2018-12-28T07:45:21.355Z,2.05
2018-12-28T07:48:46.956Z,1.96
2018-12-28T07:51:56.078Z,1.88
2018-12-28T07:55:04.631Z,1.85
2018-12-28T07:58:23.833Z,1.80
2018-12-28T08:01:28.093Z,1.77
2018-12-28T08:04:48.725Z,1.75
2018-12-28T08:07:56.041Z,1.75
2018-12-28T08:11:09.285Z,1.79
2018-12-28T08:14:29.880Z,1.77
2018-12-28T08:17:31.484Z,1.80
2018-12-28T08:20:39.518Z,1.83
2018-12-28T08:23:51.007Z,1.82
2018-12-28T08:26:47.189Z,1.82
2018-12-28T08:29:53.976Z,1.85
2018-12-28T08:32:59.748Z,1.86
2018-12-28T08:36:08.163Z,1.86
2018-12-28T08:39:37.892Z,1.89
2018-12-28T08:42:45.299Z,1.92
2018-12-28T08:45:56.543Z,1.88
2018-12-28T08:48:55.755Z,1.93
2018-12-28T08:52:13.139Z,1.92
2018-12-28T08:55:41.320Z,1.94
2018-12-28T08:59:00.478Z,1.94
2018-12-28T09:02:02.887Z,1.91
2018-12-28T09:04:56.067Z,1.95
2018-12-28T09:08:05.776Z,1.98
2018-12-28T09:11:19.090Z,1.99
2018-12-28T09:14:31.359Z,2.00
2018-12-28T09:17:26.363Z,2.03
2018-12-28T09:21:01.923Z,2.07
2018-12-28T09:23:43.996Z,2.08
2018-12-28T09:26:51.284Z,2.13
2018-12-28T09:30:14.429Z,2.17
2018-12-28T09:33:14.623Z,2.22
2018-12-28T09:36:41.097Z,2.23
2018-12-28T09:39:43.001Z,2.26
2018-12-28T09:42:53.875Z,2.27
2018-12-28T09:45:54.651Z,2.32
2018-12-28T09:49:11.660Z,2.38
2018-12-28T09:52:31.164Z,2.34
2018-12-28T09:55:57.174Z,2.40
2018-12-28T09:58:43.384Z,2.39
2018-12-28T10:01:49.407Z,2.37
2018-12-28T10:04:29.243Z,2.41
2018-12-28T10:07:36.781Z,2.48
2018-12-28T10:10:51.756Z,2.53
2018-12-28T10:13:34.259Z,2.55
2018-12-28T10:16:30.274Z,2.58
2018-12-28T10:19:00.741Z,2.66
2018-12-28T10:21:34.158Z,2.70
2018-12-28T10:24:04.681Z,2.73
2018-12-28T10:26:41.468Z,2.77
2018-12-28T10:29:12.359Z,2.82
2018-12-28T10:31:42.906Z,2.88
2018-12-28T10:34:13.630Z,3.05
2018-12-28T10:36:44.182Z,3.02
2018-12-28T10:39:16.457Z,3.01
2018-12-28T10:41:49.796Z,3.03
2018-12-28T10:44:20.356Z,3.09
2018-12-28T10:46:50.906Z,3.13
2018-12-28T10:49:21.400Z,3.18
2018-12-28T10:51:51.973Z,3.23
2018-12-28T10:54:22.540Z,3.31
2018-12-28T10:56:52.970Z,3.28
2018-12-28T10:59:25.985Z,3.29
2018-12-28T11:01:56.545Z,3.37
2018-12-28T11:04:27.987Z,3.45
2018-12-28T11:06:59.260Z,3.44
2018-12-28T11:09:29.790Z,3.45
2018-12-28T11:12:00.281Z,3.43
2018-12-28T11:14:30.633Z,3.48
2018-12-28T11:17:01.009Z,3.45
2018-12-28T11:19:31.438Z,3.55
2018-12-28T11:22:04.747Z,3.63
2018-12-28T11:24:35.170Z,3.73
2018-12-28T11:27:08.149Z,3.86
2018-12-28T11:29:38.557Z,3.82
2018-12-28T11:32:09.354Z,3.77
2018-12-28T11:34:39.931Z,3.79
2018-12-28T11:37:10.435Z,3.81
2018-12-28T11:39:40.939Z,3.77
2018-12-28T11:42:11.613Z,3.77
2018-12-28T11:44:42.088Z,3.82
2018-12-28T11:47:15.527Z,3.81
2018-12-28T11:49:51.818Z,3.86
2018-12-28T11:52:22.536Z,3.93
2018-12-28T11:54:53.166Z,3.89
2018-12-28T11:57:23.749Z,3.90
2018-12-28T11:59:54.197Z,3.89
2018-12-28T12:02:30.613Z,3.90
2018-12-28T12:04:56.914Z,3.91
2018-12-28T12:07:27.493Z,4.09
2018-12-28T12:09:57.884Z,4.10
2018-12-28T12:12:29.612Z,4.15
2018-12-28T12:15:00.594Z,4.25
2018-12-28T12:17:31.428Z,4.40
2018-12-28T12:20:02.066Z,4.70
2018-12-28T12:22:32.645Z,4.91
2018-12-28T12:25:03.170Z,5.22
2018-12-28T12:27:33.793Z,5.96
2018-12-28T12:30:06.580Z,6.59
2018-12-28T12:32:37.559Z,7.38
2018-12-28T12:35:08.207Z,7.40
2018-12-28T12:37:38.693Z,7.49
2018-12-28T12:40:09.477Z,7.50
2018-12-28T12:42:47.482Z,7.26
2018-12-28T12:45:19.395Z,7.08
2018-12-28T12:47:53.025Z,6.81
2018-12-28T12:50:26.914Z,6.67
2018-12-28T12:52:57.530Z,6.40
2018-12-28T12:55:29.831Z,6.01
2018-12-28T12:58:00.332Z,5.78
2018-12-28T13:00:30.888Z,5.99
2018-12-28T13:03:01.647Z,6.33
2018-12-28T13:05:35.026Z,6.43
2018-12-28T13:08:06.386Z,6.18
2018-12-28T13:10:36.863Z,6.20
2018-12-28T13:13:07.882Z,6.08
2018-12-28T13:15:40.326Z,5.97
2018-12-28T13:18:10.869Z,6.10
2018-12-28T13:20:41.276Z,6.19
2018-12-28T13:23:13.224Z,6.23
2018-12-28T13:25:44.448Z,6.39
2018-12-28T13:28:16.602Z,6.37
2018-12-28T13:30:49.942Z,6.42
2018-12-28T13:33:23.494Z,6.37
2018-12-28T13:35:53.902Z,6.06
2018-12-28T13:38:24.436Z,5.76
2018-12-28T13:40:55.709Z,5.81
2018-12-28T13:43:26.299Z,5.74
2018-12-28T13:45:57.015Z,5.70
2018-12-28T13:48:28.843Z,5.61
2018-12-28T13:51:02.338Z,5.52
2018-12-28T13:53:36.915Z,5.58
2018-12-28T13:56:07.691Z,5.60
2018-12-28T13:58:38.306Z,5.62
2018-12-28T14:01:11.121Z,5.58
2018-12-28T14:03:41.772Z,5.56
2018-12-28T14:06:12.236Z,5.48
2018-12-28T14:08:43.384Z,5.41
2018-12-28T14:11:14.177Z,5.42
2018-12-28T14:13:44.595Z,5.40
2018-12-28T14:16:15.123Z,5.34
2018-12-28T14:18:45.699Z,5.26
2018-12-28T14:21:16.215Z,5.27
2018-12-28T14:23:49.519Z,5.28
2018-12-28T14:26:22.068Z,5.31
2018-12-28T14:28:52.649Z,5.32
2018-12-28T14:31:23.162Z,5.36
2018-12-28T14:33:55.439Z,5.35
2018-12-28T14:36:25.874Z,5.33
2018-12-28T14:38:57.016Z,5.34
2018-12-28T14:41:27.448Z,5.36
2018-12-28T14:43:58.887Z,5.42
2018-12-28T14:46:30.529Z,5.43
2018-12-28T14:49:01.023Z,5.45
2018-12-28T14:51:31.774Z,5.46
2018-12-28T14:54:02.417Z,5.44
2018-12-28T14:56:33.969Z,5.45
2018-12-28T14:59:07.220Z,5.41
2018-12-28T15:01:38.014Z,5.54
2018-12-28T15:04:10.674Z,5.53
2018-12-28T15:06:41.212Z,5.52
2018-12-28T15:09:11.704Z,5.50
2018-12-28T15:11:42.217Z,5.48
2018-12-28T15:14:17.094Z,5.46
2018-12-28T15:16:49.398Z,5.49
2018-12-28T15:19:19.917Z,5.61
2018-12-28T15:21:50.470Z,5.54
2018-12-28T15:24:23.471Z,5.46
2018-12-28T15:26:54.175Z,5.40
2018-12-28T15:29:24.731Z,5.41
2018-12-28T15:31:55.254Z,5.38
2018-12-28T15:34:26.045Z,5.34
2018-12-28T15:36:56.724Z,5.33
2018-12-28T15:39:27.312Z,5.36
2018-12-28T15:41:58.010Z,5.35
2018-12-28T15:44:30.788Z,5.35
2018-12-28T15:47:01.925Z,5.30
2018-12-28T15:49:33.362Z,5.25
2018-12-28T15:52:03.870Z,5.27
2018-12-28T15:54:34.381Z,5.27
2018-12-28T15:57:05.349Z,5.24
2018-12-28T15:59:35.814Z,5.22
2018-12-28T16:02:06.347Z,5.21
2018-12-28T16:04:36.785Z,5.18
2018-12-28T16:07:07.540Z,5.16
2018-12-28T16:09:42.911Z,5.18
2018-12-28T16:12:16.777Z,5.16
2018-12-28T16:14:47.924Z,5.16
2018-12-28T16:17:18.372Z,5.17
2018-12-28T16:19:49.639Z,5.16
2018-12-28T16:22:20.808Z,5.13
2018-12-28T16:24:51.312Z,5.12
2018-12-28T16:27:21.807Z,5.15
2018-12-28T16:29:52.192Z,5.16
2018-12-28T16:32:22.927Z,5.15
2018-12-28T16:34:54.494Z,5.13
2018-12-28T16:37:25.088Z,5.19
2018-12-28T16:39:55.475Z,5.21
2018-12-28T16:42:25.886Z,5.19
2018-12-28T16:44:56.349Z,5.16
2018-12-28T16:47:28.209Z,5.16
2018-12-28T16:50:01.655Z,5.14
2018-12-28T16:52:34.329Z,5.27
2018-12-28T16:55:04.981Z,5.22
2018-12-28T16:57:35.529Z,5.30
2018-12-28T17:00:07.609Z,5.29
2018-12-28T17:02:38.118Z,5.29
2018-12-28T17:05:10.002Z,5.26
2018-12-28T17:07:40.439Z,5.25
2018-12-28T17:10:10.871Z,5.26
2018-12-28T17:12:43.622Z,5.35
2018-12-28T17:15:14.486Z,5.30
2018-12-28T17:17:45.358Z,5.27
2018-12-28T17:20:15.908Z,5.27
2018-12-28T17:22:46.709Z,5.27
2018-12-28T17:25:17.250Z,5.29
2018-12-28T17:27:48.619Z,5.31
2018-12-28T17:30:19.053Z,5.29
2018-12-28T17:32:50.823Z,5.33
2018-12-28T17:35:21.324Z,5.31
2018-12-28T17:37:54.705Z,5.29
2018-12-28T17:40:25.270Z,5.29
2018-12-28T17:42:55.670Z,5.29
2018-12-28T17:45:26.057Z,5.28
2018-12-28T17:47:56.534Z,5.29
2018-12-28T17:50:27.037Z,5.28
2018-12-28T17:52:57.915Z,5.29
2018-12-28T17:55:28.758Z,5.30
2018-12-28T17:58:03.652Z,5.29
2018-12-28T18:00:34.618Z,5.30
2018-12-28T18:03:07.568Z,5.32
2018-12-28T18:05:44.898Z,5.31
2018-12-28T18:08:16.495Z,5.33
2018-12-28T18:10:48.106Z,5.29
2018-12-28T18:13:18.551Z,5.31
2018-12-28T18:15:51.214Z,5.32
2018-12-28T18:18:21.693Z,5.33
2018-12-28T18:20:52.225Z,5.31
2018-12-28T18:23:23.188Z,5.34
2018-12-28T18:25:57.051Z,5.38
2018-12-28T18:28:27.828Z,5.39
2018-12-28T18:30:58.261Z,5.38
2018-12-28T18:33:28.740Z,5.35
2018-12-28T18:35:59.110Z,5.37
2018-12-28T18:38:31.204Z,5.33
2018-12-28T18:41:01.724Z,5.35
2018-12-28T18:43:34.126Z,5.35
2018-12-28T18:46:04.744Z,5.32
2018-12-28T18:48:36.644Z,5.33
2018-12-28T18:51:10.158Z,5.33
2018-12-28T18:53:48.187Z,5.34
2018-12-28T18:56:18.803Z,5.32
2018-12-28T18:58:49.707Z,5.29
2018-12-28T19:01:22.137Z,5.27
2018-12-28T19:03:52.341Z,5.25
2018-12-28T19:06:24.563Z,5.21
2018-12-28T19:08:55.012Z,5.20
2018-12-28T19:11:25.597Z,5.22
2018-12-28T19:13:56.080Z,5.19
2018-12-28T19:16:29.212Z,5.20
2018-12-28T19:18:59.675Z,5.18
2018-12-28T19:21:31.737Z,5.13
2018-12-28T19:24:02.168Z,5.14
2018-12-28T19:26:32.905Z,5.15
2018-12-28T19:29:03.900Z,5.14
2018-12-28T19:31:34.798Z,5.14
2018-12-28T19:34:05.912Z,5.14
2018-12-28T19:36:36.434Z,5.13
2018-12-28T19:39:08.374Z,5.19
2018-12-28T19:41:39.702Z,5.23
2018-12-28T19:44:14.514Z,5.25
2018-12-28T19:46:47.024Z,5.27
2018-12-28T19:49:17.662Z,5.28
2018-12-28T19:51:48.131Z,5.27
2018-12-28T19:54:18.787Z,5.33
2018-12-28T19:56:50.578Z,5.37
2018-12-28T19:59:21.127Z,5.34
2018-12-28T20:01:53.121Z,5.40
2018-12-28T20:04:23.726Z,5.45
2018-12-28T20:06:55.197Z,5.46
2018-12-28T20:09:26.653Z,5.51
2018-12-28T20:11:57.415Z,5.52
2018-12-28T20:14:28.233Z,5.53
2018-12-28T20:16:59.024Z,5.54
2018-12-28T20:19:29.544Z,5.54
2018-12-28T20:22:00.261Z,5.46
2018-12-28T20:24:31.720Z,5.42
2018-12-28T20:27:04.502Z,5.38
2018-12-28T20:29:35.021Z,5.37
2018-12-28T20:32:05.480Z,5.34
2018-12-28T20:34:37.033Z,5.33
2018-12-28T20:37:07.628Z,5.33
2018-12-28T20:39:38.452Z,5.30
2018-12-28T20:42:08.999Z,5.30
2018-12-28T20:44:39.415Z,5.34
2018-12-28T20:47:13.932Z,5.31
2018-12-28T20:49:44.599Z,5.34
2018-12-28T20:52:15.038Z,5.33
2018-12-28T20:54:46.866Z,5.30
2018-12-28T20:57:17.320Z,5.29
2018-12-28T20:59:50.619Z,5.26
2018-12-28T21:02:21.591Z,5.23
2018-12-28T21:04:52.187Z,5.24
2018-12-28T21:07:25.626Z,5.26
2018-12-28T21:09:58.631Z,5.24
2018-12-28T21:12:29.176Z,5.23
2018-12-28T21:14:59.844Z,5.26
2018-12-28T21:17:32.304Z,5.24
2018-12-28T21:20:03.123Z,5.20
2018-12-28T21:22:35.715Z,5.17
2018-12-28T21:25:06.368Z,5.13
2018-12-28T21:27:37.564Z,5.12
2018-12-28T21:30:08.420Z,5.18
2018-12-28T21:32:40.414Z,5.16
2018-12-28T21:35:11.028Z,5.14
2018-12-28T21:37:44.413Z,5.11
2018-12-28T21:40:15.469Z,5.14
2018-12-28T21:42:46.153Z,5.13
2018-12-28T21:45:19.384Z,5.09
2018-12-28T21:47:50.876Z,5.09
2018-12-28T21:50:21.527Z,5.07
2018-12-28T21:52:52.127Z,5.12
2018-12-28T21:55:22.858Z,5.12
2018-12-28T21:57:56.072Z,5.11
2018-12-28T22:00:26.509Z,5.14
2018-12-28T22:02:58.171Z,5.15
2018-12-28T22:05:30.916Z,5.17
2018-12-28T22:08:01.592Z,5.18
2018-12-28T22:10:31.964Z,5.16
2018-12-28T22:13:02.446Z,5.13
2018-12-28T22:15:36.045Z,5.15
2018-12-28T22:18:06.510Z,5.15
2018-12-28T22:20:38.632Z,5.13
2018-12-28T22:23:09.415Z,5.12
2018-12-28T22:25:39.841Z,5.07
2018-12-28T22:28:10.490Z,5.10
2018-12-28T22:30:40.902Z,5.11
2018-12-28T22:33:11.327Z,5.09
2018-12-28T22:35:42.054Z,5.04
2018-12-28T22:38:14.204Z,5.01
2018-12-28T22:40:44.963Z,5.02
2018-12-28T22:43:15.815Z,4.92
2018-12-28T22:45:46.226Z,4.86
2018-12-28T22:48:19.596Z,4.75
2018-12-28T22:50:51.203Z,4.71
2018-12-28T22:53:21.594Z,4.61
2018-12-28T22:55:52.091Z,4.54
2018-12-28T22:58:22.634Z,4.55
2018-12-28T23:00:55.618Z,4.52
2018-12-28T23:03:28.134Z,4.53
2018-12-28T23:05:58.704Z,4.51
2018-12-28T23:08:29.074Z,4.46
2018-12-28T23:10:59.782Z,4.47
2018-12-28T23:13:30.155Z,4.49
2018-12-28T23:16:01.454Z,4.53
2018-12-28T23:18:34.493Z,4.56
2018-12-28T23:21:04.952Z,4.59
2018-12-28T23:23:35.376Z,4.64
2018-12-28T23:26:05.799Z,4.66
2018-12-28T23:28:37.140Z,4.63
2018-12-28T23:31:09.424Z,4.64
2018-12-28T23:33:39.822Z,4.66
2018-12-28T23:36:10.248Z,4.65
2018-12-28T23:38:40.686Z,4.60
2018-12-28T23:41:13.349Z,4.56
2018-12-28T23:43:43.855Z,4.54
2018-12-28T23:46:15.381Z,4.54
2018-12-28T23:48:45.871Z,4.51
2018-12-28T23:51:17.235Z,4.51
2018-12-28T23:53:47.718Z,4.52
2018-12-28T23:56:18.153Z,4.50
2018-12-28T23:58:48.602Z,4.49
